createdAt,value
2022-11-02T06:41:39.654Z,14.96
2022-11-02T06:44:08.502Z,14.93
2022-11-02T06:46:36.381Z,14.94
2022-11-02T06:49:04.768Z,14.98
2022-11-02T06:51:32.796Z,14.99
2022-11-02T06:54:05.963Z,14.67
2022-11-02T06:56:36.384Z,14.75
2022-11-02T06:59:06.178Z,14.97
2022-11-02T07:01:35.254Z,14.83
2022-11-02T07:04:04.446Z,14.95
2022-11-02T07:06:33.036Z,14.86
2022-11-02T07:09:01.299Z,14.85
2022-11-02T07:11:29.337Z,14.61
2022-11-02T07:13:57.536Z,14.73
2022-11-02T07:16:26.927Z,14.70
2022-11-02T07:18:55.573Z,14.89
2022-11-02T07:21:23.541Z,14.74
2022-11-02T07:23:52.094Z,14.85
2022-11-02T07:26:20.850Z,14.82
2022-11-02T07:28:49.314Z,14.91
2022-11-02T07:31:19.404Z,14.78
2022-11-02T07:33:49.218Z,14.82
2022-11-02T07:36:17.870Z,14.88
2022-11-02T07:38:45.756Z,14.66
2022-11-02T07:41:14.289Z,14.69
2022-11-02T07:43:44.075Z,14.71
2022-11-02T07:46:14.343Z,14.75
2022-11-02T07:48:42.547Z,14.84
2022-11-02T07:51:12.720Z,14.97
2022-11-02T07:53:40.917Z,14.89
2022-11-02T07:56:09.699Z,15.03
2022-11-02T07:58:37.581Z,15.11
2022-11-02T08:01:06.000Z,14.92
2022-11-02T08:03:34.071Z,15.11
2022-11-02T08:06:03.987Z,14.94
2022-11-02T08:08:33.455Z,15.30
2022-11-02T08:11:06.324Z,15.35
2022-11-02T08:13:35.200Z,15.41
2022-11-02T08:16:03.376Z,15.53
2022-11-02T08:18:33.328Z,15.62
2022-11-02T08:21:01.807Z,15.47
2022-11-02T08:23:31.111Z,15.73
2022-11-02T08:26:01.499Z,15.78
2022-11-02T08:28:32.853Z,15.86
2022-11-02T08:31:01.154Z,15.79
2022-11-02T08:33:29.253Z,15.95
2022-11-02T08:36:04.114Z,15.84
2022-11-02T08:38:32.496Z,15.68
2022-11-02T08:41:02.038Z,16.07
2022-11-02T08:43:30.570Z,15.86
2022-11-02T08:46:16.553Z,15.93
2022-11-02T08:48:47.678Z,15.89
2022-11-02T08:51:15.989Z,16.24
2022-11-02T08:53:50.236Z,16.27
2022-11-02T08:56:21.773Z,16.09
2022-11-02T08:58:49.782Z,16.22
2022-11-02T09:01:20.173Z,16.40
2022-11-02T09:03:48.273Z,16.27
2022-11-02T09:06:16.257Z,16.33
2022-11-02T09:08:44.222Z,16.46
2022-11-02T09:11:12.622Z,16.15
2022-11-02T09:13:43.201Z,16.43
2022-11-02T09:16:11.658Z,16.33
2022-11-02T09:18:39.649Z,16.18
2022-11-02T09:21:08.062Z,16.51
2022-11-02T09:23:35.982Z,16.32
2022-11-02T09:26:03.950Z,16.13
2022-11-02T09:28:32.329Z,16.40
2022-11-02T09:31:03.774Z,16.35
2022-11-02T09:33:34.366Z,16.40
2022-11-02T09:36:05.299Z,16.63
2022-11-02T09:38:33.668Z,16.48
2022-11-02T09:41:10.381Z,16.62
2022-11-02T09:43:47.257Z,16.65
2022-11-02T09:46:21.013Z,16.62
2022-11-02T09:48:53.282Z,16.86
2022-11-02T09:51:24.746Z,16.54
2022-11-02T09:54:03.163Z,16.74
2022-11-02T09:56:31.777Z,17.00
2022-11-02T09:59:05.107Z,16.98
2022-11-02T10:02:01.669Z,16.84
2022-11-02T10:05:04.430Z,17.28
2022-11-02T10:07:46.450Z,17.35
2022-11-02T10:10:18.965Z,17.14
2022-11-02T10:12:58.452Z,17.26
2022-11-02T10:15:33.524Z,17.18
2022-11-02T10:18:05.787Z,17.53
2022-11-02T10:20:40.008Z,17.35
2022-11-02T10:23:11.269Z,17.49
2022-11-02T10:25:39.376Z,17.43
2022-11-02T10:28:15.615Z,17.64
2022-11-02T10:30:45.408Z,17.52
2022-11-02T10:33:19.034Z,17.64
2022-11-02T10:36:16.735Z,17.36
2022-11-02T10:38:53.940Z,17.66
2022-11-02T10:41:39.213Z,17.75
2022-11-02T10:44:26.746Z,17.70
2022-11-02T10:47:10.310Z,17.67
2022-11-02T10:50:11.934Z,17.75
2022-11-02T10:52:43.345Z,17.68
2022-11-02T10:55:21.573Z,17.64
2022-11-02T10:57:50.856Z,17.57
2022-11-02T11:00:33.591Z,17.44
2022-11-02T11:03:09.638Z,17.51
2022-11-02T11:05:56.150Z,17.45
2022-11-02T11:08:37.032Z,17.60
2022-11-02T11:11:16.644Z,17.66
2022-11-02T11:16:39.527Z,17.71
2022-11-02T11:22:26.202Z,17.76
2022-11-02T11:25:27.593Z,17.91
2022-11-02T11:27:57.630Z,17.72
2022-11-02T11:30:58.341Z,17.76
2022-11-02T11:33:25.624Z,17.69
2022-11-02T11:35:53.839Z,17.91
2022-11-02T11:38:27.504Z,17.90
2022-11-02T11:40:58.282Z,18.06
2022-11-02T11:43:35.230Z,17.95
2022-11-02T11:46:11.429Z,17.76
2022-11-02T11:48:42.417Z,17.89
2022-11-02T11:51:33.665Z,17.99
2022-11-02T11:54:33.482Z,18.06
2022-11-02T11:57:26.764Z,17.77
2022-11-02T12:00:02.707Z,17.81
2022-11-02T12:02:43.849Z,17.85
2022-11-02T12:05:21.678Z,18.15
2022-11-02T12:08:20.547Z,18.19
2022-11-02T12:11:16.267Z,18.05
2022-11-02T12:14:11.977Z,18.34
2022-11-02T12:17:09.720Z,18.37
2022-11-02T12:20:04.052Z,18.34
2022-11-02T12:22:42.718Z,18.20
2022-11-02T12:25:50.844Z,18.24
2022-11-02T12:28:35.713Z,18.41
2022-11-02T12:31:19.406Z,18.48
2022-11-02T12:34:19.133Z,18.24
2022-11-02T12:45:07.487Z,18.38
2022-11-02T12:48:16.079Z,18.52
2022-11-02T12:51:03.328Z,18.53
2022-11-02T12:53:52.319Z,18.52
2022-11-02T12:56:24.488Z,18.59
2022-11-02T12:58:53.213Z,18.47
2022-11-02T13:01:30.951Z,18.29
2022-11-02T13:04:06.460Z,18.40
2022-11-02T13:06:37.604Z,18.59
2022-11-02T13:09:12.453Z,18.32
2022-11-02T13:11:44.724Z,18.30
2022-11-02T13:14:19.795Z,18.59
2022-11-02T13:16:54.807Z,18.38
2022-11-02T13:19:30.145Z,18.46
2022-11-02T13:22:00.152Z,18.51
2022-11-02T13:24:34.108Z,18.32
2022-11-02T13:27:14.762Z,18.36
2022-11-02T13:29:51.687Z,18.09
2022-11-02T13:32:33.590Z,18.22
2022-11-02T13:35:07.810Z,18.28
2022-11-02T13:37:40.449Z,18.16
2022-11-02T13:40:16.791Z,18.11
2022-11-02T13:43:21.409Z,17.97
2022-11-02T13:46:02.412Z,18.17
2022-11-02T13:48:49.529Z,17.95
2022-11-02T13:51:38.357Z,17.90
2022-11-02T13:54:13.687Z,17.99
2022-11-02T13:56:44.282Z,18.15
2022-11-02T13:59:23.339Z,18.16
2022-11-02T14:01:56.478Z,18.17
2022-11-02T14:04:30.477Z,18.33
2022-11-02T14:15:54.785Z,18.41
2022-11-02T14:18:33.460Z,18.18
2022-11-02T14:21:45.211Z,18.36
2022-11-02T14:24:50.408Z,18.38
2022-11-02T14:27:31.526Z,18.23
2022-11-02T14:30:00.028Z,18.14
2022-11-02T14:32:54.884Z,18.28
2022-11-02T14:35:46.969Z,18.28
2022-11-02T14:38:41.449Z,17.96
2022-11-02T14:41:25.180Z,17.95
2022-11-02T14:44:10.149Z,18.10
2022-11-02T14:46:56.896Z,17.93
2022-11-02T14:49:29.282Z,17.85
2022-11-02T14:52:04.923Z,17.99
2022-11-02T14:54:39.713Z,18.01
2022-11-02T14:57:18.977Z,17.81
2022-11-02T14:59:51.392Z,17.85
2022-11-02T15:02:27.023Z,18.09
2022-11-02T15:04:57.700Z,18.00
2022-11-02T15:07:35.793Z,18.14
2022-11-02T15:10:10.775Z,17.80
2022-11-02T15:12:41.216Z,17.76
2022-11-02T15:15:36.675Z,17.96
2022-11-02T15:18:24.909Z,17.76
2022-11-02T15:21:32.830Z,18.08
2022-11-02T15:24:16.665Z,17.83
2022-11-02T15:26:59.785Z,17.81
2022-11-02T15:29:37.511Z,17.80
2022-11-02T15:32:12.077Z,17.89
2022-11-02T15:34:45.044Z,17.79
2022-11-02T15:37:19.804Z,17.96
2022-11-02T15:39:50.358Z,17.61
2022-11-02T15:42:29.982Z,17.88
2022-11-02T15:48:26.308Z,17.64
2022-11-02T15:51:01.423Z,17.49
2022-11-02T15:54:01.361Z,17.50
2022-11-02T15:56:44.397Z,17.59
2022-11-02T15:59:43.593Z,17.58
2022-11-02T16:02:26.538Z,17.54
2022-11-02T16:04:58.647Z,17.50
2022-11-02T16:07:43.603Z,17.44
2022-11-02T16:10:30.442Z,17.44
2022-11-02T16:13:00.472Z,17.35
2022-11-02T16:15:30.830Z,17.39
2022-11-02T16:18:03.142Z,17.16
2022-11-02T17:56:17.712Z,16.53
2022-11-02T17:58:45.835Z,16.51
2022-11-02T18:01:15.490Z,16.31
2022-11-02T18:03:44.210Z,16.48
2022-11-02T18:06:12.853Z,16.68
2022-11-02T18:08:54.903Z,16.44
2022-11-02T18:11:26.549Z,16.64
2022-11-02T18:13:56.492Z,16.61
2022-11-02T18:16:24.967Z,16.65
2022-11-02T18:18:52.982Z,16.35
2022-11-02T18:21:23.492Z,16.44
2022-11-02T18:23:52.221Z,16.44
2022-11-02T18:26:20.252Z,16.65
2022-11-02T18:28:52.312Z,16.40
2022-11-02T18:31:20.855Z,16.60
2022-11-02T18:33:48.843Z,16.51
2022-11-02T18:36:16.897Z,16.23
2022-11-02T18:38:45.266Z,16.46
2022-11-02T18:41:32.565Z,16.36
2022-11-02T18:44:07.844Z,16.39
2022-11-02T18:46:38.934Z,16.37
2022-11-02T18:49:07.475Z,16.35
2022-11-02T18:51:35.437Z,16.19
2022-11-02T18:54:05.310Z,16.53
2022-11-02T18:56:33.658Z,16.34
2022-11-02T18:59:03.313Z,16.31
2022-11-02T19:01:31.712Z,16.09
2022-11-02T19:04:00.838Z,16.26
2022-11-02T19:06:48.307Z,16.29
2022-11-02T19:09:21.265Z,16.40
2022-11-02T19:11:51.891Z,16.29
2022-11-02T19:14:22.875Z,16.36
2022-11-02T19:16:52.061Z,16.34
2022-11-02T19:19:20.493Z,16.40
2022-11-02T19:21:48.780Z,16.26
2022-11-02T19:24:17.433Z,16.13
2022-11-02T19:26:46.063Z,15.99
2022-11-02T19:29:14.301Z,16.38
2022-11-02T19:31:44.540Z,15.97
2022-11-02T19:34:13.429Z,16.14
2022-11-02T19:36:41.598Z,16.11
2022-11-02T19:39:11.420Z,15.98
2022-11-02T19:41:40.568Z,16.13
2022-11-02T19:44:10.645Z,16.11
2022-11-02T19:49:11.762Z,16.02
2022-11-02T19:51:40.231Z,16.10
2022-11-02T19:54:09.019Z,15.85
2022-11-02T19:56:38.770Z,16.25
2022-11-02T19:59:07.541Z,16.24
2022-11-02T20:01:37.821Z,16.00
2022-11-02T20:04:08.814Z,16.23
2022-11-02T20:06:41.207Z,16.25
2022-11-02T20:09:15.481Z,15.90
2022-11-02T20:11:45.620Z,15.99
2022-11-02T20:14:16.077Z,15.98
2022-11-02T20:16:45.337Z,15.98
2022-11-02T20:19:22.762Z,16.07
2022-11-02T20:21:52.752Z,15.97
2022-11-02T20:24:20.948Z,16.05
2022-11-02T20:26:56.288Z,15.82
2022-11-02T20:29:31.761Z,15.95
2022-11-02T20:32:04.030Z,16.03
2022-11-02T20:34:32.482Z,15.79
2022-11-02T20:37:05.211Z,15.99
2022-11-02T20:39:33.391Z,16.04
2022-11-02T20:42:01.590Z,15.94
2022-11-02T20:44:31.305Z,16.03
2022-11-02T20:47:05.234Z,16.02
2022-11-02T20:49:49.902Z,15.92
2022-11-02T20:52:22.262Z,16.19
2022-11-02T20:54:50.714Z,15.72
2022-11-02T20:57:19.932Z,15.69
2022-11-02T20:59:51.361Z,15.72
2022-11-02T21:02:22.319Z,15.95
2022-11-02T21:04:54.459Z,16.18
2022-11-02T21:07:27.425Z,15.90
2022-11-02T21:09:55.435Z,15.92
2022-11-02T21:12:41.801Z,15.86
2022-11-02T21:15:10.919Z,15.84
2022-11-02T21:17:39.543Z,16.13
2022-11-02T21:20:33.216Z,16.02
2022-11-02T21:23:03.232Z,15.91
2022-11-02T21:25:32.480Z,16.18
2022-11-02T21:28:01.367Z,15.75
2022-11-02T21:30:33.259Z,15.74
2022-11-02T21:33:01.904Z,15.82
2022-11-02T21:35:30.257Z,16.16
2022-11-02T21:38:01.377Z,15.89
2022-11-02T21:40:34.210Z,16.14
2022-11-02T21:43:05.543Z,16.14
2022-11-02T21:45:39.530Z,15.78
2022-11-02T21:48:08.683Z,15.97
2022-11-02T21:50:40.684Z,15.81
2022-11-02T21:53:11.279Z,15.90
2022-11-02T21:55:43.411Z,16.14
2022-11-02T21:58:11.915Z,16.13
2022-11-02T22:00:57.810Z,15.97
2022-11-02T22:03:32.038Z,15.72
2022-11-02T22:06:00.239Z,15.88
2022-11-02T22:08:41.238Z,15.79
2022-11-02T22:11:15.632Z,15.92
2022-11-02T22:13:45.388Z,15.88
2022-11-02T22:16:17.468Z,15.90
2022-11-02T22:18:47.175Z,15.89
2022-11-02T22:21:16.985Z,16.03
2022-11-02T22:23:47.545Z,15.72
2022-11-02T22:26:19.777Z,16.02
2022-11-02T22:28:49.290Z,16.19
2022-11-02T22:31:19.702Z,15.81
2022-11-02T22:33:49.256Z,15.93
2022-11-02T22:36:20.335Z,16.07
2022-11-02T22:38:54.912Z,16.08
2022-11-02T22:41:27.265Z,16.08
2022-11-02T22:43:57.784Z,15.95
2022-11-02T22:46:28.571Z,15.87
2022-11-02T22:48:58.540Z,15.87
2022-11-02T22:51:28.137Z,16.07
2022-11-02T22:54:00.808Z,15.97
2022-11-02T22:56:31.160Z,15.84
2022-11-02T22:59:00.982Z,15.84
2022-11-02T23:01:33.175Z,16.01
2022-11-02T23:04:04.543Z,16.14
2022-11-02T23:06:35.559Z,16.19
2022-11-02T23:09:11.812Z,15.90
2022-11-02T23:11:40.865Z,16.10
2022-11-02T23:14:11.292Z,16.17
2022-11-02T23:16:42.792Z,16.15
2022-11-02T23:19:28.294Z,15.87
2022-11-02T23:22:19.485Z,15.94
2022-11-02T23:25:06.621Z,15.84
2022-11-02T23:27:59.203Z,16.19
2022-11-02T23:30:50.298Z,15.92
2022-11-02T23:33:22.650Z,15.90
2022-11-02T23:36:09.433Z,16.02
2022-11-02T23:38:55.813Z,15.92
2022-11-02T23:41:24.670Z,16.28
2022-11-02T23:44:12.578Z,16.11
2022-11-02T23:46:45.959Z,15.91
2022-11-02T23:49:17.313Z,15.89
2022-11-02T23:52:03.762Z,15.90
2022-11-02T23:54:54.441Z,15.90
2022-11-02T23:57:23.419Z,16.10
2022-11-02T23:59:55.581Z,15.87
